sensor_id;sensor_type;location;lat;lon;timestamp;P1;durP1;ratioP1;P2;durP2;ratioP2
56949;SDS011;74437;50.080;19.924;2024-02-21T18:06:06;15.57;;;7.60;;
56949;SDS011;74437;50.080;19.924;2024-02-21T18:08:34;20.50;;;8.82;;
56949;SDS011;74437;50.080;19.924;2024-02-21T18:10:59;16.63;;;7.65;;
56949;SDS011;74437;50.080;19.924;2024-02-21T18:13:24;12.88;;;7.20;;
56949;SDS011;74437;50.080;19.924;2024-02-21T18:15:50;16.80;;;7.30;;
56949;SDS011;74437;50.080;19.924;2024-02-21T18:18:15;17.13;;;7.60;;
56949;SDS011;74437;50.080;19.924;2024-02-21T18:20:41;13.90;;;7.15;;
56949;SDS011;74437;50.080;19.924;2024-02-21T18:23:06;14.90;;;7.10;;
56949;SDS011;74437;50.080;19.924;2024-02-21T18:25:31;15.63;;;6.53;;
56949;SDS011;74437;50.080;19.924;2024-02-21T18:27:58;13.18;;;7.10;;
56949;SDS011;74437;50.080;19.924;2024-02-21T18:30:23;16.50;;;7.22;;
56949;SDS011;74437;50.080;19.924;2024-02-21T18:32:48;12.57;;;6.30;;
56949;SDS011;74437;50.080;19.924;2024-02-21T18:35:17;14.82;;;6.80;;
56949;SDS011;74437;50.080;19.924;2024-02-21T18:37:43;13.85;;;6.95;;
56949;SDS011;74437;50.080;19.924;2024-02-21T18:40:09;15.43;;;7.30;;
56949;SDS011;74437;50.080;19.924;2024-02-21T18:42:42;12.68;;;7.45;;
56949;SDS011;74437;50.080;19.924;2024-02-21T18:45:08;15.70;;;6.70;;
56949;SDS011;74437;50.080;19.924;2024-02-21T18:47:35;12.57;;;7.18;;
56949;SDS011;74437;50.080;19.924;2024-02-21T18:50:01;16.20;;;7.20;;
56949;SDS011;74437;50.080;19.924;2024-02-21T18:52:27;16.25;;;7.07;;
56949;SDS011;74437;50.080;19.924;2024-02-21T18:54:52;14.77;;;6.93;;
56949;SDS011;74437;50.080;19.924;2024-02-21T18:57:17;16.42;;;7.88;;
56949;SDS011;74437;50.080;19.924;2024-02-21T18:59:43;15.10;;;8.10;;
56949;SDS011;74437;50.080;19.924;2024-02-21T19:02:09;16.65;;;7.55;;
56949;SDS011;74437;50.080;19.924;2024-02-21T19:04:34;15.95;;;7.75;;
56949;SDS011;74437;50.080;19.924;2024-02-21T19:07:00;19.60;;;8.63;;
56949;SDS011;74437;50.080;19.924;2024-02-21T19:09:25;18.90;;;9.48;;
56949;SDS011;74437;50.080;19.924;2024-02-21T19:11:51;17.00;;;9.30;;
56949;SDS011;74437;50.080;19.924;2024-02-21T19:14:16;21.75;;;9.93;;
56949;SDS011;74437;50.080;19.924;2024-02-21T19:16:41;17.75;;;10.27;;
56949;SDS011;74437;50.080;19.924;2024-02-21T19:19:07;23.98;;;10.38;;
56949;SDS011;74437;50.080;19.924;2024-02-21T19:21:32;20.88;;;10.40;;
56949;SDS011;74437;50.080;19.924;2024-02-21T19:23:57;23.67;;;10.95;;
56949;SDS011;74437;50.080;19.924;2024-02-21T19:26:23;24.13;;;11.18;;
56949;SDS011;74437;50.080;19.924;2024-02-21T19:28:48;29.00;;;13.25;;
56949;SDS011;74437;50.080;19.924;2024-02-21T19:31:13;22.85;;;12.90;;
56949;SDS011;74437;50.080;19.924;2024-02-21T19:33:40;28.27;;;12.48;;
56949;SDS011;74437;50.080;19.924;2024-02-21T19:36:05;26.02;;;13.52;;
56949;SDS011;74437;50.080;19.924;2024-02-21T19:38:34;30.45;;;13.32;;
56949;SDS011;74437;50.080;19.924;2024-02-21T19:40:59;25.20;;;13.88;;
56949;SDS011;74437;50.080;19.924;2024-02-21T19:43:25;27.63;;;13.52;;
56949;SDS011;74437;50.080;19.924;2024-02-21T19:45:50;30.10;;;15.02;;
56949;SDS011;74437;50.080;19.924;2024-02-21T19:48:15;33.90;;;15.25;;
56949;SDS011;74437;50.080;19.924;2024-02-21T19:50:43;25.23;;;13.60;;
56949;SDS011;74437;50.080;19.924;2024-02-21T19:53:08;25.42;;;14.40;;
56949;SDS011;74437;50.080;19.924;2024-02-21T19:55:34;26.75;;;14.00;;
56949;SDS011;74437;50.080;19.924;2024-02-21T19:57:59;27.42;;;13.50;;
56949;SDS011;74437;50.080;19.924;2024-02-21T20:00:24;23.52;;;12.50;;
56949;SDS011;74437;50.080;19.924;2024-02-21T20:02:50;22.77;;;11.80;;
56949;SDS011;74437;50.080;19.924;2024-02-21T20:05:17;28.60;;;12.15;;
56949;SDS011;74437;50.080;19.924;2024-02-21T20:07:44;25.08;;;12.98;;
56949;SDS011;74437;50.080;19.924;2024-02-21T20:10:10;24.85;;;11.57;;
56949;SDS011;74437;50.080;19.924;2024-02-21T20:12:36;27.63;;;12.18;;
56949;SDS011;74437;50.080;19.924;2024-02-21T20:17:33;27.65;;;12.90;;
56949;SDS011;74437;50.080;19.924;2024-02-21T20:19:59;29.15;;;12.68;;
56949;SDS011;74437;50.080;19.924;2024-02-21T20:22:25;27.48;;;12.73;;
56949;SDS011;74437;50.080;19.924;2024-02-21T20:24:51;28.65;;;12.98;;
56949;SDS011;74437;50.080;19.924;2024-02-21T20:27:16;29.48;;;13.48;;
56949;SDS011;74437;50.080;19.924;2024-02-21T20:29:41;30.50;;;12.98;;
56949;SDS011;74437;50.080;19.924;2024-02-21T20:32:07;25.45;;;12.45;;
56949;SDS011;74437;50.080;19.924;2024-02-21T20:34:32;27.05;;;13.48;;
56949;SDS011;74437;50.080;19.924;2024-02-21T20:36:58;27.50;;;13.55;;
56949;SDS011;74437;50.080;19.924;2024-02-21T20:39:24;25.02;;;13.60;;
56949;SDS011;74437;50.080;19.924;2024-02-21T20:41:50;30.02;;;13.55;;
56949;SDS011;74437;50.080;19.924;2024-02-21T20:44:15;29.00;;;13.95;;
56949;SDS011;74437;50.080;19.924;2024-02-21T20:46:41;26.40;;;13.77;;
56949;SDS011;74437;50.080;19.924;2024-02-21T20:49:06;28.25;;;13.40;;
56949;SDS011;74437;50.080;19.924;2024-02-21T20:51:32;23.77;;;12.55;;
56949;SDS011;74437;50.080;19.924;2024-02-21T20:53:57;30.67;;;12.52;;
56949;SDS011;74437;50.080;19.924;2024-02-21T20:56:22;25.95;;;12.75;;
56949;SDS011;74437;50.080;19.924;2024-02-21T20:58:48;25.55;;;12.65;;
56949;SDS011;74437;50.080;19.924;2024-02-21T21:01:14;30.33;;;14.25;;
56949;SDS011;74437;50.080;19.924;2024-02-21T21:03:40;30.77;;;12.68;;
56949;SDS011;74437;50.080;19.924;2024-02-21T21:06:06;26.10;;;13.63;;
56949;SDS011;74437;50.080;19.924;2024-02-21T21:08:31;26.58;;;13.52;;
56949;SDS011;74437;50.080;19.924;2024-02-21T21:10:57;29.60;;;14.40;;
56949;SDS011;74437;50.080;19.924;2024-02-21T21:13:22;29.45;;;13.68;;
56949;SDS011;74437;50.080;19.924;2024-02-21T21:15:47;23.20;;;11.93;;
56949;SDS011;74437;50.080;19.924;2024-02-21T21:18:13;25.88;;;13.27;;
56949;SDS011;74437;50.080;19.924;2024-02-21T21:20:39;26.80;;;12.43;;
56949;SDS011;74437;50.080;19.924;2024-02-21T21:23:06;23.98;;;12.55;;
56949;SDS011;74437;50.080;19.924;2024-02-21T21:25:32;22.75;;;11.60;;
56949;SDS011;74437;50.080;19.924;2024-02-21T21:27:59;26.73;;;12.98;;
56949;SDS011;74437;50.080;19.924;2024-02-21T21:30:25;24.65;;;11.98;;
56949;SDS011;74437;50.080;19.924;2024-02-21T21:32:50;25.88;;;12.50;;
56949;SDS011;74437;50.080;19.924;2024-02-21T21:35:16;26.52;;;11.57;;
56949;SDS011;74437;50.080;19.924;2024-02-21T21:37:41;22.60;;;10.85;;
56949;SDS011;74437;50.080;19.924;2024-02-21T21:40:07;25.50;;;12.60;;
56949;SDS011;74437;50.080;19.924;2024-02-21T21:42:34;29.50;;;13.75;;
56949;SDS011;74437;50.080;19.924;2024-02-21T21:45:00;29.88;;;13.10;;
56949;SDS011;74437;50.080;19.924;2024-02-21T21:47:26;26.98;;;12.32;;
56949;SDS011;74437;50.080;19.924;2024-02-21T21:49:51;27.48;;;11.55;;
56949;SDS011;74437;50.080;19.924;2024-02-21T21:52:16;22.60;;;11.88;;
56949;SDS011;74437;50.080;19.924;2024-02-21T21:54:42;27.20;;;12.23;;
56949;SDS011;74437;50.080;19.924;2024-02-21T21:57:07;29.38;;;13.20;;
56949;SDS011;74437;50.080;19.924;2024-02-21T21:59:33;26.10;;;12.10;;
56949;SDS011;74437;50.080;19.924;2024-02-21T22:01:58;27.13;;;12.05;;
56949;SDS011;74437;50.080;19.924;2024-02-21T22:04:25;22.80;;;10.95;;
56949;SDS011;74437;50.080;19.924;2024-02-21T22:06:52;25.20;;;10.35;;
56949;SDS011;74437;50.080;19.924;2024-02-21T22:09:17;27.10;;;10.43;;
56949;SDS011;74437;50.080;19.924;2024-02-21T22:11:42;27.17;;;12.02;;
56949;SDS011;74437;50.080;19.924;2024-02-21T22:14:08;21.77;;;10.77;;
56949;SDS011;74437;50.080;19.924;2024-02-21T22:16:33;22.20;;;10.00;;
56949;SDS011;74437;50.080;19.924;2024-02-21T22:18:59;24.35;;;10.75;;
56949;SDS011;74437;50.080;19.924;2024-02-21T22:21:24;28.08;;;11.70;;
56949;SDS011;74437;50.080;19.924;2024-02-21T22:23:49;23.20;;;10.32;;
56949;SDS011;74437;50.080;19.924;2024-02-21T22:26:15;24.25;;;10.52;;
56949;SDS011;74437;50.080;19.924;2024-02-21T22:28:41;22.63;;;10.38;;
56949;SDS011;74437;50.080;19.924;2024-02-21T22:31:07;23.75;;;10.57;;
56949;SDS011;74437;50.080;19.924;2024-02-21T22:33:34;24.05;;;11.05;;
56949;SDS011;74437;50.080;19.924;2024-02-21T22:36:00;19.10;;;10.13;;
56949;SDS011;74437;50.080;19.924;2024-02-21T22:38:25;17.20;;;10.10;;
56949;SDS011;74437;50.080;19.924;2024-02-21T22:40:50;22.17;;;9.82;;
56949;SDS011;74437;50.080;19.924;2024-02-21T22:43:17;24.15;;;10.43;;
56949;SDS011;74437;50.080;19.924;2024-02-21T22:45:42;23.55;;;10.35;;
56949;SDS011;74437;50.080;19.924;2024-02-21T22:48:07;25.05;;;10.40;;
56949;SDS011;74437;50.080;19.924;2024-02-21T22:50:33;26.60;;;10.25;;
56949;SDS011;74437;50.080;19.924;2024-02-21T22:52:58;21.15;;;10.50;;
56949;SDS011;74437;50.080;19.924;2024-02-21T22:55:24;25.73;;;10.23;;
56949;SDS011;74437;50.080;19.924;2024-02-21T22:57:49;21.60;;;10.32;;
56949;SDS011;74437;50.080;19.924;2024-02-21T23:00:14;20.38;;;9.73;;
56949;SDS011;74437;50.080;19.924;2024-02-21T23:02:41;22.08;;;9.82;;
56949;SDS011;74437;50.080;19.924;2024-02-21T23:05:09;23.98;;;11.15;;
56949;SDS011;74437;50.080;19.924;2024-02-21T23:07:35;20.98;;;10.27;;
56949;SDS011;74437;50.080;19.924;2024-02-21T23:10:01;21.50;;;11.38;;
56949;SDS011;74437;50.080;19.924;2024-02-21T23:12:26;19.90;;;9.88;;
56949;SDS011;74437;50.080;19.924;2024-02-21T23:14:52;27.00;;;10.93;;
56949;SDS011;74437;50.080;19.924;2024-02-21T23:17:18;21.05;;;10.40;;
56949;SDS011;74437;50.080;19.924;2024-02-21T23:19:43;28.13;;;12.10;;
56949;SDS011;74437;50.080;19.924;2024-02-21T23:22:09;22.38;;;11.15;;
56949;SDS011;74437;50.080;19.924;2024-02-21T23:24:34;24.92;;;11.75;;
56949;SDS011;74437;50.080;19.924;2024-02-21T23:27:00;27.17;;;13.48;;
56949;SDS011;74437;50.080;19.924;2024-02-21T23:29:26;29.10;;;15.40;;
56949;SDS011;74437;50.080;19.924;2024-02-21T23:31:51;28.67;;;15.02;;
56949;SDS011;74437;50.080;19.924;2024-02-21T23:34:16;29.60;;;16.05;;
56949;SDS011;74437;50.080;19.924;2024-02-21T23:36:42;41.88;;;19.50;;
56949;SDS011;74437;50.080;19.924;2024-02-21T23:39:07;42.35;;;19.55;;
56949;SDS011;74437;50.080;19.924;2024-02-21T23:41:32;38.35;;;17.98;;
56949;SDS011;74437;50.080;19.924;2024-02-21T23:43:58;43.28;;;21.55;;
56949;SDS011;74437;50.080;19.924;2024-02-21T23:46:23;43.33;;;21.42;;
56949;SDS011;74437;50.080;19.924;2024-02-21T23:48:49;48.22;;;22.63;;
56949;SDS011;74437;50.080;19.924;2024-02-21T23:51:15;43.45;;;21.17;;
56949;SDS011;74437;50.080;19.924;2024-02-21T23:53:41;49.80;;;24.20;;
56949;SDS011;74437;50.080;19.924;2024-02-21T23:56:07;52.80;;;24.40;;
56949;SDS011;74437;50.080;19.924;2024-02-21T23:58:33;50.95;;;24.05;;
